Ron Brown — WTEC — position and weather

sailwx.info

Track history (hours):
 
Tides and Currents Weather Stations Pressure Air Temp Water Temp Dewpoint Dewpoint Depression Visibility Wind Speed Wind Dir Waves Ship Positions

Oceanographic research ship Ron Brown (USA)

Detailed information on ship capabilities available from University of Delaware's Ocean Information Center.

Owner: UNIVERSITY OF SOUTHERN CALIFORNIA, TERMINAL ISLAND, CA. More information available from US FCC via Universal Licensing System and Coast Guard Vessel Documentation Center.

Last reported at 2017-Mar-25 17:59 UTC. Time now 2017-Apr-23 07:56 UTC.
Position N 32°48' W 079°54'.
Warning: this ship's position is 28 days out of date.

Type: Other ship. MMSI: 368996000.

Wind from 150 at 11 knots

Barometer 1027.8 mb
Air temperature 21.2 ° C

Date/timePositionNaut miles runAvg speedWind from/ knotsBaromVisibWave heightAir tempDewpointWater temp
2017-Mar-25 17:59N 32°48' W 079°54'0 0.0 150 / 111027.8 21.2
2017-Mar-25 16:59N 32°48' W 079°54'8 8.0 140 / 91028.2 21.1
2017-Mar-25 16:00N 32°42' W 079°48'8 7.8 100 / 81028.0 19.8
2017-Mar-25 15:00N 32°36' W 079°42'1010.1 070 / 41027.9 19.0
2017-Mar-25 14:00N 32°36' W 079°30'8 7.8 020 / 31027.6 18.4 16.4
2017-Mar-25 13:00N 32°30' W 079°24'1010.1 140 / 81027.3 19.9 18.5
2017-Mar-25 12:00N 32°30' W 079°12'8 7.9 170 / 101026.7 20.3 20.1
2017-Mar-25 11:00N 32°24' W 079°06'1010.1 160 / 131026.0 20.3 21.2
2017-Mar-25 10:00N 32°24' W 078°54'5 5.1 140 / 91025.9 20.5 23.8
2017-Mar-25 09:00N 32°24' W 078°48'8 7.9 150 / 101026.1 20.5 23.5
2017-Mar-25 08:00N 32°18' W 078°42'1010.1 150 / 101026.7 20.2 23.9
2017-Mar-25 07:00N 32°18' W 078°30'1211.8 120 / 101027.4 20.2 23.8
2017-Mar-25 06:00N 32°12' W 078°18'5 5.1 120 / 101027.7 19.9 22.4
2017-Mar-25 05:00N 32°12' W 078°12'1211.8 140 / 101028.3 20.2 22.4
2017-Mar-25 04:00N 32°06' W 078°00'5 5.1 120 / 111029.2 20.3 24.9
2017-Mar-25 03:00N 32°06' W 077°54'1010.2 110 / 101028.5 20.4 25.5
2017-Mar-25 02:00N 32°06' W 077°42'8 7.9 120 / 111029.5 19.5 25.6
2017-Mar-25 01:00N 32°00' W 077°36'1010.2 120 / 121028.8 19.6 25.1
2017-Mar-25 00:00N 32°00' W 077°24'1211.8 120 / 121028.6 19.4 25.2
2017-Mar-24 23:00N 31°54' W 077°12'1211.8 110 / 111029.3 19.1 24.7
2017-Mar-24 22:00N 31°48' W 077°00'1010.2 110 / 91030.3 19.3 24.9
2017-Mar-24 21:00N 31°48' W 076°48'1211.8 120 / 121031.5 19.1 22.1
2017-Mar-24 20:00N 31°42' W 076°36'1616.5 110 / 121032.6 18.9 21.6
2017-Mar-24 19:00N 31°36' W 076°18'1010.2 090 / 101033.6 18.4 21.9
2017-Mar-24 18:00N 31°36' W 076°06'1616.5 090 / 121034.1 18.2 22.5
2017-Mar-24 17:00N 31°30' W 075°48'1211.9 080 / 141034.5 18.2 22.6
2017-Mar-24 16:00N 31°24' W 075°36'1010.2 090 / 151034.7 18.6 22.6
2017-Mar-24 15:00N 31°24' W 075°24'1716.5 090 / 171033.8 17.8 22.5
2017-Mar-24 14:00N 31°18' W 075°06'1211.9 090 / 141032.6 17.9 23.6
2017-Mar-24 13:00N 31°12' W 074°54'1010.3 080 / 171032.5 17.6 23.1
2017-Mar-24 12:00N 31°12' W 074°42'1211.9 060 / 191032.0 17.0 22.8
2017-Mar-24 11:00N 31°06' W 074°30'1211.9 070 / 171031.0 16.8 22.0
2017-Mar-24 10:00N 31°00' W 074°18'1010.3 080 / 191030.3 16.7 22.3
2017-Mar-24 09:00N 31°00' W 074°06'1211.9 080 / 221029.6 16.6 21.7
2017-Mar-24 08:00N 30°54' W 073°54'1515.4 060 / 221029.7 16.7 21.3
2017-Mar-24 07:00N 30°54' W 073°36'1211.9 080 / 231029.5 16.7 21.3
2017-Mar-24 06:00N 30°48' W 073°24'1211.9 080 / 201029.5 16.6 21.0
2017-Mar-24 05:00N 30°42' W 073°12'2613.2 070 / 261029.4 16.7 20.7
2017-Mar-24 03:00N 30°36' W 072°42'1211.9 060 / 221028.7 16.2 20.6
2017-Mar-24 02:00N 30°30' W 072°30'1010.3 060 / 221028.1 16.6 20.6
2017-Mar-24 01:00N 30°30' W 072°18'1212.0 060 / 191027.9 16.5 21.0
2017-Mar-24 00:00N 30°24' W 072°06'1010.4 060 / 221026.6 16.3 21.0
2017-Mar-23 23:00N 30°24' W 071°54'1212.0 050 / 211026.0 16.2 20.9
2017-Mar-23 22:00N 30°18' W 071°42'1211.8 040 / 221025.6 16.6 21.1
2017-Mar-23 20:59N 30°12' W 071°30'1010.4 040 / 251025.7 16.6 21.1
2017-Mar-23 19:59N 30°12' W 071°18'1212.2 040 / 241025.6 16.5 21.0
2017-Mar-23 19:00N 30°06' W 071°06'1010.4 030 / 251025.5 16.4 20.9
2017-Mar-23 18:00N 30°06' W 070°54'1716.7 040 / 241025.0 5.4 16.513.221.6
2017-Mar-23 17:00N 30°00' W 070°36'1212.0 040 / 271024.7 16.6 21.6
2017-Mar-23 16:00N 29°54' W 070°24'1010.4 040 / 231024.4 16.8 21.7
2017-Mar-23 15:00N 29°54' W 070°12'1212.0 040 / 251024.1 16.8 21.7
2017-Mar-23 14:00N 29°48' W 070°00'1211.8 030 / 251023.1 16.9 21.7
2017-Mar-23 12:59N 29°42' W 069°48'1010.6 030 / 281021.9 17.4 21.7
2017-Mar-23 12:00N 29°42' W 069°36'1212.0 030 / 311021.0 17.3 21.7
2017-Mar-23 11:00N 29°36' W 069°24'1010.4 030 / 281019.9 17.6 21.7
2017-Mar-23 10:00N 29°36' W 069°12'1212.0 030 / 281019.3 16.9 21.5
2017-Mar-23 09:00N 29°30' W 069°00'1212.0 040 / 241018.5 19.2 21.8
2017-Mar-23 08:00N 29°24' W 068°48'1010.5 020 / 231018.4 19.6 22.5
2017-Mar-23 07:00N 29°24' W 068°36'1716.8 260 / 141017.9 20.9 22.5
2017-Mar-23 06:00N 29°18' W 068°18'1010.5 250 / 151018.2 21.2 22.8
2017-Mar-23 05:00N 29°18' W 068°06'1212.1 230 / 171017.8 20.9 21.5
2017-Mar-23 04:00N 29°12' W 067°54'1212.1 210 / 161018.1 20.8 21.4
2017-Mar-23 03:00N 29°06' W 067°42'1716.8 240 / 141018.6 21.1 21.4
2017-Mar-23 02:00N 29°00' W 067°24'1010.5 200 / 161018.7 20.7 21.5
2017-Mar-23 01:00N 29°00' W 067°12'1212.1 210 / 151018.6 20.5 21.3
2017-Mar-23 00:00N 28°54' W 067°00'1110.5 220 / 141018.4 20.5 21.2
2017-Mar-22 23:00N 28°54' W 066°48'1716.9 210 / 161018.3 20.5 21.2
2017-Mar-22 22:00N 28°48' W 066°30'1212.1 190 / 181017.7 20.7 21.5
2017-Mar-22 21:00N 28°42' W 066°18'1110.5 180 / 161017.5 20.6 21.5
2017-Mar-22 20:00N 28°42' W 066°06'1212.1 190 / 151017.5 20.4 21.5
2017-Mar-22 19:00N 28°36' W 065°54'1212.1 210 / 121018.4 20.2 21.2
2017-Mar-22 18:00N 28°30' W 065°42'1615.8 200 / 131019.3 20.1 21.5
2017-Mar-22 17:00N 28°30' W 065°24'1212.1 210 / 91020.8 20.1 21.4
2017-Mar-22 16:00N 28°24' W 065°12'1212.1 210 / 141021.4 20.4 22.3
2017-Mar-22 15:00N 28°18' W 065°00'1110.6 230 / 61021.9 20.3 21.4
2017-Mar-22 14:00N 28°18' W 064°48'1212.2 210 / 91021.8 20.0 21.6
2017-Mar-22 13:00N 28°12' W 064°36'1110.6 190 / 81021.4 19.9 22.1
2017-Mar-22 12:00N 28°12' W 064°24'1212.2 210 / 41020.6 19.9 23.1
2017-Mar-22 11:00N 28°06' W 064°12'1212.2 200 / 31019.6 19.8 23.0
2017-Mar-22 10:00N 28°00' W 064°00'1110.6 300 / 31019.1 19.6 22.9
2017-Mar-22 09:00N 28°00' W 063°48'1212.2 350 / 51018.9 19.8 22.9
2017-Mar-22 08:00N 27°54' W 063°36'1212.2 210 / 51018.9 20.1 22.5
2017-Mar-22 07:00N 27°48' W 063°24'1615.9 190 / 71018.9 20.1 22.1
2017-Mar-22 06:00N 27°48' W 063°06'1212.2 200 / 41019.1 20.3 22.0
2017-Mar-22 05:00N 27°42' W 062°54'1110.6 120 / 21019.6 20.4 21.4
2017-Mar-22 04:00N 27°42' W 062°42'1212.2 280 / 31019.7 20.2 22.1
2017-Mar-22 03:00N 27°36' W 062°30'1212.2 340 / 51019.4 20.2 22.5
2017-Mar-22 02:00N 27°30' W 062°18'1110.6 280 / 21019.1 20.3 22.8
2017-Mar-22 01:00N 27°30' W 062°06'1212.2 320 / 21018.7 20.4 22.8
2017-Mar-22 00:00N 27°24' W 061°54'1110.7 320 / 71018.4 20.4 22.9
2017-Mar-21 23:00N 27°24' W 061°42'1212.2 330 / 91018.1 20.6 22.8
2017-Mar-21 22:00N 27°18' W 061°30'1212.2 300 / 61017.8 21.0 22.6
2017-Mar-21 21:00N 27°12' W 061°18'1110.7 330 / 61017.8 21.0 22.7
2017-Mar-21 20:00N 27°12' W 061°06'1212.2 320 / 61017.9 21.1 22.4
2017-Mar-21 19:00N 27°06' W 060°54'1212.3 290 / 81019.1 21.4 22.6
2017-Mar-21 18:00N 27°00' W 060°42'1110.7 330 / 91019.6 21.2 22.3
2017-Mar-21 17:00N 27°00' W 060°30'1212.3 320 / 111019.3 20.7 22.6
2017-Mar-21 16:00N 26°54' W 060°18'1110.7 280 / 111019.5 21.4 22.6
2017-Mar-21 15:00N 26°54' W 060°06'1212.3 320 / 111019.4 21.1 22.6
2017-Mar-21 14:00N 26°48' W 059°54'1110.7 280 / 121019.0 21.2 22.4
2017-Mar-21 13:00N 26°48' W 059°42'1212.3 310 / 101018.2 21.1 22.6
2017-Mar-21 12:00N 26°42' W 059°30'1212.3 290 / 121016.9 21.2 22.7
2017-Mar-21 11:00N 26°36' W 059°18'1110.7 310 / 91016.5 21.2 23.0
2017-Mar-21 10:00N 26°36' W 059°06'1212.3 290 / 111016.0 21.4 24.0
2017-Mar-21 09:00N 26°30' W 058°54'1212.1 280 / 161015.6 21.8 24.2
2017-Mar-21 07:59N 26°24' W 058°42'1110.9 280 / 141015.3 22.3 24.0
2017-Mar-21 07:00N 26°24' W 058°30'1212.3 310 / 151014.8 22.4 24.1
2017-Mar-21 06:00N 26°18' W 058°18'1110.8 270 / 141015.1 22.5 24.1
2017-Mar-21 05:00N 26°18' W 058°06'1212.3 250 / 171015.5 22.9 24.1
2017-Mar-21 04:00N 26°12' W 057°54'1212.3 210 / 171015.7 23.4 24.1
2017-Mar-21 03:00N 26°06' W 057°42'1110.8 220 / 211015.7 23.5 24.1
2017-Mar-21 02:00N 26°06' W 057°30'1212.3 230 / 221015.5 23.0 23.9
2017-Mar-21 01:00N 26°00' W 057°18'1717.3 220 / 241015.7 21.8 23.9
2017-Mar-21 00:00N 25°54' W 057°00'1110.8 190 / 181015.9 23.3 23.6
2017-Mar-20 23:00N 25°54' W 056°48'1212.4 190 / 191015.7 23.3 23.8
2017-Mar-20 22:00N 25°48' W 056°36'1110.8 180 / 171016.1 23.7 23.8
2017-Mar-20 21:00N 25°48' W 056°24'1212.4 170 / 161016.3 23.8 24.0
2017-Mar-20 20:00N 25°42' W 056°12'1212.4 170 / 151016.8 23.7 23.8
2017-Mar-20 19:00N 25°36' W 056°00'1110.8 170 / 151017.4 23.8 23.9
2017-Mar-20 18:00N 25°36' W 055°48'0 0.0 160 / 131017.8 5.4 23.822.423.9
2017-Mar-20 17:59N 25°36' W 055°48'1212.4 170 / 151018.2 23.7 23.9
2017-Mar-20 16:59N 25°30' W 055°36'1717.3 160 / 151018.5 23.5 23.9
2017-Mar-20 15:59N 25°24' W 055°18'1110.8 150 / 181018.9 22.7 24.0
2017-Mar-20 14:59N 25°24' W 055°06'1212.4 150 / 141020.2 23.3 23.6
2017-Mar-20 13:59N 25°18' W 054°54'1212.4 140 / 151020.5 23.2 23.6
2017-Mar-20 12:59N 25°12' W 054°42'1111.0 140 / 161020.0 23.1 23.4
2017-Mar-20 12:00N 25°12' W 054°30'0 0.0 130 / 171020.010.8 23.021.323.4
2017-Mar-20 11:59N 25°12' W 054°30'1212.4 130 / 151019.8 23.0 23.4
2017-Mar-20 10:59N 25°06' W 054°18'1717.7 120 / 141019.3 22.9 23.5
2017-Mar-20 10:00N 25°00' W 054°00'1110.9 130 / 141019.1 22.7 23.6
2017-Mar-20 09:00N 25°00' W 053°48'1212.4 140 / 141018.9 22.6 23.4
2017-Mar-20 08:00N 24°54' W 053°36'1212.2 130 / 121018.6 22.5 23.3
2017-Mar-20 06:59N 24°48' W 053°24'1111.1 120 / 121018.7 22.6 23.0
2017-Mar-20 06:00N 24°48' W 053°12'0 0.0 130 / 141019.0 5.4 21.819.023.9
2017-Mar-20 05:59N 24°48' W 053°12'1212.4 130 / 131018.9 22.7 23.4
2017-Mar-20 04:59N 24°42' W 053°00'1212.4 140 / 111019.4 22.9 23.6
2017-Mar-20 03:59N 24°36' W 052°48'1110.9 130 / 121019.8 22.9 23.7
2017-Mar-20 02:59N 24°36' W 052°36'1212.7 110 / 131020.1 23.0 23.9
2017-Mar-20 02:00N 24°30' W 052°24'1717.4 110 / 141020.1 23.0 24.0
2017-Mar-20 01:00N 24°24' W 052°06'5 5.5 110 / 121020.0 22.9 23.5
2017-Mar-20 00:00N 24°24' W 052°00'1717.5 100 / 131019.6 5.4 22.917.823.5
2017-Mar-19 23:00N 24°18' W 051°42'1110.9 100 / 151019.2 23.0 24.1
2017-Mar-19 22:00N 24°18' W 051°30'1212.5 090 / 121019.2 23.0 24.2
2017-Mar-19 21:00N 24°12' W 051°18'1212.5 090 / 111019.4 23.2 24.2
2017-Mar-19 20:00N 24°06' W 051°06'1212.5 090 / 121020.4 23.6 24.2
2017-Mar-19 19:00N 24°00' W 050°54'1111.0 090 / 141021.5 23.7 24.5
2017-Mar-19 18:00N 24°00' W 050°42'1816.9 090 / 131022.310.8 24.819.524.2
2017-Mar-19 16:58N 23°54' W 050°24'1312.5 080 / 111023.5 22.9 24.1
2017-Mar-19 15:58N 23°48' W 050°12'1111.0 090 / 91024.2 22.9 24.0
2017-Mar-19 14:58N 23°48' W 050°00'1312.5 100 / 91024.7 22.9 23.8
2017-Mar-19 13:58N 23°42' W 049°48'1111.2 090 / 91024.4 22.9 24.2
2017-Mar-19 12:59N 23°42' W 049°36'1312.7 090 / 111023.9 22.8 24.1
2017-Mar-19 12:00N 23°36' W 049°24'0 0.0 080 / 51023.110.8 22.717.923.9
2017-Mar-19 11:59N 23°36' W 049°24'1312.5 090 / 91023.0 22.7 23.9
2017-Mar-19 10:59N 23°30' W 049°12'1716.5 090 / 111022.1 22.6 23.8
2017-Mar-19 09:59N 23°30' W 048°54'1312.5 080 / 111021.2 22.4 23.8
2017-Mar-19 08:59N 23°24' W 048°42'1312.5 100 / 151020.1 22.2 24.0
2017-Mar-19 07:59N 23°18' W 048°30'1111.0 080 / 111019.9 22.3 24.0
2017-Mar-19 06:59N 23°18' W 048°18'1312.8 080 / 111020.1 22.4 24.1
2017-Mar-19 06:00N 23°12' W 048°06'0 0.0 090 / 121020.2 5.4 21.618.524.3
2017-Mar-19 05:59N 23°12' W 048°06'1312.6 080 / 141020.3 22.3 24.2
2017-Mar-19 04:59N 23°06' W 047°54'1111.0 080 / 141020.8 22.4 24.2
2017-Mar-19 03:59N 23°06' W 047°42'1312.6 090 / 161020.9 22.4 23.8
2017-Mar-19 02:59N 23°00' W 047°30'1312.6 090 / 131021.6 22.3 23.7
2017-Mar-19 01:59N 22°54' W 047°18'1716.9 080 / 131021.8 22.2 23.8
2017-Mar-19 01:00N 22°54' W 047°00'1312.6 080 / 131021.7 22.1 23.8
2017-Mar-19 00:00N 22°48' W 046°48'1312.6 060 / 161021.5 21.7 23.7
2017-Mar-18 23:00N 22°42' W 046°36'1111.1 070 / 171020.8 22.0 23.8
2017-Mar-18 22:00N 22°42' W 046°24'1312.4 070 / 161020.7 21.9 23.8
2017-Mar-18 20:59N 22°36' W 046°12'1312.6 070 / 161020.2 21.8 23.8
2017-Mar-18 19:59N 22°30' W 046°00'1111.1 070 / 161019.9 21.1 23.8
2017-Mar-18 18:59N 22°30' W 045°48'1312.8 060 / 141020.1 22.4 23.7
2017-Mar-18 18:00N 22°24' W 045°36'6110.9 070 / 131020.710.8 24.022.324.0
2017-Mar-18 17:57N 22°24' W 045°30'1312.6 060 / 151020.6 22.3 24.1
2017-Mar-18 16:57N 22°18' W 045°18'1111.1 090 / 151021.5 23.3 23.9
2017-Mar-18 15:57N 22°18' W 045°06'1312.6 080 / 151021.6 22.2 23.9
2017-Mar-18 14:57N 22°12' W 044°54'1312.6 100 / 181020.9 21.4 23.9
2017-Mar-18 13:57N 22°06' W 044°42'1111.1 080 / 191022.4 22.7 23.9
2017-Mar-18 12:57N 22°06' W 044°30'1313.3 070 / 161023.0 22.6 24.1
2017-Mar-18 12:00N 22°00' W 044°18'6166.9 070 / 131022.3 5.4 23.018.724.2
2017-Mar-18 11:58N 22°00' W 044°12'1312.6 080 / 161022.4 23.1 24.2
2017-Mar-18 10:58N 21°54' W 044°00'1111.1 080 / 161021.0 22.9 24.0
2017-Mar-18 09:58N 21°54' W 043°48'1312.7 070 / 161020.4 22.2 23.8
2017-Mar-18 08:58N 21°48' W 043°36'1312.9 060 / 171019.9 22.0 23.8
2017-Mar-18 07:59N 21°42' W 043°24'1111.1 070 / 181019.8 22.1 23.8
2017-Mar-18 06:59N 21°42' W 043°12'1312.9 070 / 121019.5 21.8 23.7
2017-Mar-18 06:00N 21°36' W 043°00'0 0.0 080 / 151019.5 5.4 21.717.924.1
2017-Mar-18 05:59N 21°36' W 043°00'1312.9 080 / 151019.4 22.3 23.8
2017-Mar-18 05:00N 21°30' W 042°48'1111.2 090 / 181019.2 22.4 23.8
2017-Mar-18 04:00N 21°30' W 042°36'1312.7 080 / 161019.6 22.3 23.8
2017-Mar-18 03:00N 21°24' W 042°24'1111.2 090 / 181019.8 22.4 23.8
2017-Mar-18 02:00N 21°24' W 042°12'1312.7 080 / 191019.8 22.3 23.5
2017-Mar-18 01:00N 21°18' W 042°00'1312.7 080 / 201019.8 22.7 23.7
2017-Mar-18 00:00N 21°12' W 041°48'1110.8 070 / 191019.9 5.4 22.716.223.8
2017-Mar-17 22:58N 21°12' W 041°36'1312.7 080 / 181019.7 22.6 23.5
2017-Mar-17 21:58N 21°06' W 041°24'2311.7 070 / 211019.5 22.5 23.4
2017-Mar-17 19:59N 21°00' W 041°00'1312.7 080 / 231019.0 23.0 23.4
2017-Mar-17 18:59N 20°54' W 040°48'1312.9 080 / 211020.0 23.4 23.6
2017-Mar-17 18:00N 20°48' W 040°36'0 0.0 070 / 241020.410.8 23.119.723.5
2017-Mar-17 17:55N 20°48' W 040°36'1111.2 070 / 191020.5 23.1 23.6
2017-Mar-17 16:55N 20°48' W 040°24'1312.9 070 / 211020.8 22.7 23.6
2017-Mar-17 15:56N 20°42' W 040°12'0 0.0 080 / 251020.5 22.3 23.6
2017-Mar-17 14:56N 20°42' W 040°12'0 0.0 050 / 241019.8 22.3 23.6
2017-Mar-17 13:56N 20°42' W 040°12'0 0.0 060 / 221020.5 22.4 23.6
2017-Mar-17 12:56N 20°42' W 040°12'0 0.0 060 / 241020.8 22.4 23.6
2017-Mar-17 12:00N 20°42' W 040°12'0 0.0 070 / 191020.9 5.4 22.318.423.6
2017-Mar-17 11:56N 20°42' W 040°12'1111.2 060 / 241020.7 22.2 23.6
2017-Mar-17 10:56N 20°42' W 040°00'1312.9 080 / 231020.9 22.4 23.7
2017-Mar-17 09:57N 20°36' W 039°48'1312.7 070 / 261020.0 22.6 23.7
2017-Mar-17 08:57N 20°30' W 039°36'1111.2 070 / 281019.1 22.3 23.7
2017-Mar-17 07:57N 20°30' W 039°24'1313.0 070 / 241018.7 22.3 23.7
2017-Mar-17 06:58N 20°24' W 039°12'1313.2 060 / 261018.5 22.4 23.9
2017-Mar-17 06:00N 20°18' W 039°00'0 0.0 070 / 221018.1 5.4 20.818.424.0
2017-Mar-17 05:58N 20°18' W 039°00'1111.3 060 / 231018.0 21.6 23.9
2017-Mar-17 04:58N 20°18' W 038°48'1313.0 080 / 221017.6 20.3 23.8
2017-Mar-17 03:59N 20°12' W 038°36'1312.8 060 / 171018.5 20.7 23.5
2017-Mar-17 02:59N 20°06' W 038°24'1111.5 070 / 211018.8 21.1 23.6
2017-Mar-17 02:00N 20°06' W 038°12'1312.8 070 / 241018.4 20.8 23.5
2017-Mar-17 01:00N 20°00' W 038°00'1111.3 070 / 311018.4 21.1 23.7
2017-Mar-17 00:00N 20°00' W 037°48'0 0.0 070 / 171018.9 21.5 23.6
2017-Mar-16 22:50N 20°00' W 037°48'0 0.0 050 / 191018.3 21.9 23.6
2017-Mar-16 21:50N 20°00' W 037°48'0 0.0 060 / 281017.7 21.5 23.6
2017-Mar-16 20:50N 20°00' W 037°48'6 5.7 060 / 281017.5 21.6 23.6
2017-Mar-16 19:51N 20°00' W 037°54'0 0.0 050 / 261017.0 21.6 23.6
2017-Mar-16 18:51N 20°00' W 037°54'6 5.7 070 / 261018.2 23.4 23.6
2017-Mar-16 17:52N 20°00' W 037°48'0 0.0 060 / 211017.5 22.6 23.6
2017-Mar-16 16:52N 20°00' W 037°48'0 0.0 080 / 231018.4 21.5 23.6
2017-Mar-16 15:53N 20°00' W 037°48'0 0.0 060 / 251018.8 22.6 23.6
2017-Mar-16 14:53N 20°00' W 037°48'0 0.0 060 / 251019.2 22.6 23.6
2017-Mar-16 13:54N 20°00' W 037°48'1111.3 080 / 321020.4 22.6 23.6
2017-Mar-16 12:54N 20°00' W 037°36'1112.5 070 / 291020.8 22.4 23.6
2017-Mar-16 12:00N 20°00' W 037°24'0 0.0 080 / 241019.8 5.4 21.819.223.6
2017-Mar-16 11:55N 20°00' W 037°24'1111.3 080 / 221019.7 21.5 23.6
2017-Mar-16 10:55N 20°00' W 037°12'1111.3 060 / 251019.2 22.3 23.6
2017-Mar-16 09:55N 20°00' W 037°00'1111.5 080 / 231018.4 21.4 23.6
2017-Mar-16 08:56N 20°00' W 036°48'1111.3 060 / 201017.9 22.0 23.6
2017-Mar-16 07:56N 20°00' W 036°36'1717.2 070 / 201017.3 21.3 23.5
2017-Mar-16 06:57N 20°00' W 036°18'1111.9 060 / 231017.0 21.1 23.7
2017-Mar-16 06:00N 20°00' W 036°06'0 0.0 060 / 191017.3 5.4 21.819.023.8
2017-Mar-16 05:57N 20°00' W 036°06'1111.5 060 / 201017.2 22.3 23.6
2017-Mar-16 04:58N 20°00' W 035°54'1111.3 070 / 231016.9 22.2 23.6
2017-Mar-16 03:58N 20°00' W 035°42'1111.5 060 / 201016.8 21.9 23.5
2017-Mar-16 02:59N 20°00' W 035°30'1111.3 060 / 241017.0 21.9 23.7
2017-Mar-16 01:59N 20°00' W 035°18'1313.0 060 / 181017.0 22.7 23.4
2017-Mar-16 01:00N 20°06' W 035°06'1111.3 070 / 191016.8 22.6 23.5
2017-Mar-16 00:00N 20°06' W 034°54'1714.9 060 / 191016.8 5.4 22.618.823.7
2017-Mar-15 22:52N 20°06' W 034°36'1111.3 070 / 131016.6 22.6 23.5
2017-Mar-15 21:52N 20°06' W 034°24'1111.3 080 / 171016.1 22.9 23.5
2017-Mar-15 20:52N 20°06' W 034°12'1717.2 060 / 151015.6 22.9 23.6
2017-Mar-15 19:53N 20°06' W 033°54'1111.3 070 / 131015.4 23.3 23.7
2017-Mar-15 18:53N 20°06' W 033°42'1112.8 090 / 161015.2 24.1 23.6
2017-Mar-15 18:00N 20°06' W 033°30'   070 / 131016.6 5.4 26.519.723.7
Track history (hours):
 
Tides and Currents Weather Stations Pressure Air Temp Water Temp Dewpoint Dewpoint Depression Visibility Wind Speed Wind Dir Waves Ship Positions

Oceanographic research ship Ron Brown (USA)

Detailed information on ship capabilities available from University of Delaware's Ocean Information Center.

Owner: UNIVERSITY OF SOUTHERN CALIFORNIA, TERMINAL ISLAND, CA. More information available from US FCC via Universal Licensing System and Coast Guard Vessel Documentation Center.

Last reported at 2017-Mar-25 17:59 UTC. Time now 2017-Apr-23 07:56 UTC.
Position N 32°48' W 079°54'.
Warning: this ship's position is 28 days out of date.

Type: Other ship. MMSI: 368996000.

Wind from 150 at 11 knots

Barometer 1027.8 mb
Air temperature 21.2 ° C

Date/timePositionNaut miles runAvg speedWind from/ knotsBaromVisibWave heightAir tempDewpointWater temp
2017-Mar-25 17:59N 32°48' W 079°54'0 0.0 150 / 111027.8 21.2
2017-Mar-25 16:59N 32°48' W 079°54'8 8.0 140 / 91028.2 21.1
2017-Mar-25 16:00N 32°42' W 079°48'8 7.8 100 / 81028.0 19.8
2017-Mar-25 15:00N 32°36' W 079°42'1010.1 070 / 41027.9 19.0
2017-Mar-25 14:00N 32°36' W 079°30'8 7.8 020 / 31027.6 18.4 16.4
2017-Mar-25 13:00N 32°30' W 079°24'1010.1 140 / 81027.3 19.9 18.5
2017-Mar-25 12:00N 32°30' W 079°12'8 7.9 170 / 101026.7 20.3 20.1
2017-Mar-25 11:00N 32°24' W 079°06'1010.1 160 / 131026.0 20.3 21.2
2017-Mar-25 10:00N 32°24' W 078°54'5 5.1 140 / 91025.9 20.5 23.8
2017-Mar-25 09:00N 32°24' W 078°48'8 7.9 150 / 101026.1 20.5 23.5
2017-Mar-25 08:00N 32°18' W 078°42'1010.1 150 / 101026.7 20.2 23.9
2017-Mar-25 07:00N 32°18' W 078°30'1211.8 120 / 101027.4 20.2 23.8
2017-Mar-25 06:00N 32°12' W 078°18'5 5.1 120 / 101027.7 19.9 22.4
2017-Mar-25 05:00N 32°12' W 078°12'1211.8 140 / 101028.3 20.2 22.4
2017-Mar-25 04:00N 32°06' W 078°00'5 5.1 120 / 111029.2 20.3 24.9
2017-Mar-25 03:00N 32°06' W 077°54'1010.2 110 / 101028.5 20.4 25.5
2017-Mar-25 02:00N 32°06' W 077°42'8 7.9 120 / 111029.5 19.5 25.6
2017-Mar-25 01:00N 32°00' W 077°36'1010.2 120 / 121028.8 19.6 25.1
2017-Mar-25 00:00N 32°00' W 077°24'1211.8 120 / 121028.6 19.4 25.2
2017-Mar-24 23:00N 31°54' W 077°12'1211.8 110 / 111029.3 19.1 24.7
2017-Mar-24 22:00N 31°48' W 077°00'1010.2 110 / 91030.3 19.3 24.9
2017-Mar-24 21:00N 31°48' W 076°48'1211.8 120 / 121031.5 19.1 22.1
2017-Mar-24 20:00N 31°42' W 076°36'1616.5 110 / 121032.6 18.9 21.6
2017-Mar-24 19:00N 31°36' W 076°18'1010.2 090 / 101033.6 18.4 21.9
2017-Mar-24 18:00N 31°36' W 076°06'1616.5 090 / 121034.1 18.2 22.5
2017-Mar-24 17:00N 31°30' W 075°48'1211.9 080 / 141034.5 18.2 22.6
2017-Mar-24 16:00N 31°24' W 075°36'1010.2 090 / 151034.7 18.6 22.6
2017-Mar-24 15:00N 31°24' W 075°24'1716.5 090 / 171033.8 17.8 22.5
2017-Mar-24 14:00N 31°18' W 075°06'1211.9 090 / 141032.6 17.9 23.6
2017-Mar-24 13:00N 31°12' W 074°54'1010.3 080 / 171032.5 17.6 23.1
2017-Mar-24 12:00N 31°12' W 074°42'1211.9 060 / 191032.0 17.0 22.8
2017-Mar-24 11:00N 31°06' W 074°30'1211.9 070 / 171031.0 16.8 22.0
2017-Mar-24 10:00N 31°00' W 074°18'1010.3 080 / 191030.3 16.7 22.3
2017-Mar-24 09:00N 31°00' W 074°06'1211.9 080 / 221029.6 16.6 21.7
2017-Mar-24 08:00N 30°54' W 073°54'1515.4 060 / 221029.7 16.7 21.3
2017-Mar-24 07:00N 30°54' W 073°36'1211.9 080 / 231029.5 16.7 21.3
2017-Mar-24 06:00N 30°48' W 073°24'1211.9 080 / 201029.5 16.6 21.0
2017-Mar-24 05:00N 30°42' W 073°12'2613.2 070 / 261029.4 16.7 20.7
2017-Mar-24 03:00N 30°36' W 072°42'1211.9 060 / 221028.7 16.2 20.6
2017-Mar-24 02:00N 30°30' W 072°30'1010.3 060 / 221028.1 16.6 20.6
2017-Mar-24 01:00N 30°30' W 072°18'1212.0 060 / 191027.9 16.5 21.0
2017-Mar-24 00:00N 30°24' W 072°06'1010.4 060 / 221026.6 16.3 21.0
2017-Mar-23 23:00N 30°24' W 071°54'1212.0 050 / 211026.0 16.2 20.9
2017-Mar-23 22:00N 30°18' W 071°42'1211.8 040 / 221025.6 16.6 21.1
2017-Mar-23 20:59N 30°12' W 071°30'1010.4 040 / 251025.7 16.6 21.1
2017-Mar-23 19:59N 30°12' W 071°18'1212.2 040 / 241025.6 16.5 21.0
2017-Mar-23 19:00N 30°06' W 071°06'1010.4 030 / 251025.5 16.4 20.9
2017-Mar-23 18:00N 30°06' W 070°54'1716.7 040 / 241025.0 5.4 16.513.221.6
2017-Mar-23 17:00N 30°00' W 070°36'1212.0 040 / 271024.7 16.6 21.6
2017-Mar-23 16:00N 29°54' W 070°24'1010.4 040 / 231024.4 16.8 21.7
2017-Mar-23 15:00N 29°54' W 070°12'1212.0 040 / 251024.1 16.8 21.7
2017-Mar-23 14:00N 29°48' W 070°00'1211.8 030 / 251023.1 16.9 21.7
2017-Mar-23 12:59N 29°42' W 069°48'1010.6 030 / 281021.9 17.4 21.7
2017-Mar-23 12:00N 29°42' W 069°36'1212.0 030 / 311021.0 17.3 21.7
2017-Mar-23 11:00N 29°36' W 069°24'1010.4 030 / 281019.9 17.6 21.7
2017-Mar-23 10:00N 29°36' W 069°12'1212.0 030 / 281019.3 16.9 21.5
2017-Mar-23 09:00N 29°30' W 069°00'1212.0 040 / 241018.5 19.2 21.8
2017-Mar-23 08:00N 29°24' W 068°48'1010.5 020 / 231018.4 19.6 22.5
2017-Mar-23 07:00N 29°24' W 068°36'1716.8 260 / 141017.9 20.9 22.5
2017-Mar-23 06:00N 29°18' W 068°18'1010.5 250 / 151018.2 21.2 22.8
2017-Mar-23 05:00N 29°18' W 068°06'1212.1 230 / 171017.8 20.9 21.5
2017-Mar-23 04:00N 29°12' W 067°54'1212.1 210 / 161018.1 20.8 21.4
2017-Mar-23 03:00N 29°06' W 067°42'1716.8 240 / 141018.6 21.1 21.4
2017-Mar-23 02:00N 29°00' W 067°24'1010.5 200 / 161018.7 20.7 21.5
2017-Mar-23 01:00N 29°00' W 067°12'1212.1 210 / 151018.6 20.5 21.3
2017-Mar-23 00:00N 28°54' W 067°00'1110.5 220 / 141018.4 20.5 21.2
2017-Mar-22 23:00N 28°54' W 066°48'1716.9 210 / 161018.3 20.5 21.2
2017-Mar-22 22:00N 28°48' W 066°30'1212.1 190 / 181017.7 20.7 21.5
2017-Mar-22 21:00N 28°42' W 066°18'1110.5 180 / 161017.5 20.6 21.5
2017-Mar-22 20:00N 28°42' W 066°06'1212.1 190 / 151017.5 20.4 21.5
2017-Mar-22 19:00N 28°36' W 065°54'1212.1 210 / 121018.4 20.2 21.2
2017-Mar-22 18:00N 28°30' W 065°42'1615.8 200 / 131019.3 20.1 21.5
2017-Mar-22 17:00N 28°30' W 065°24'1212.1 210 / 91020.8 20.1 21.4
2017-Mar-22 16:00N 28°24' W 065°12'1212.1 210 / 141021.4 20.4 22.3
2017-Mar-22 15:00N 28°18' W 065°00'1110.6 230 / 61021.9 20.3 21.4
2017-Mar-22 14:00N 28°18' W 064°48'1212.2 210 / 91021.8 20.0 21.6
2017-Mar-22 13:00N 28°12' W 064°36'1110.6 190 / 81021.4 19.9 22.1
2017-Mar-22 12:00N 28°12' W 064°24'1212.2 210 / 41020.6 19.9 23.1
2017-Mar-22 11:00N 28°06' W 064°12'1212.2 200 / 31019.6 19.8 23.0
2017-Mar-22 10:00N 28°00' W 064°00'1110.6 300 / 31019.1 19.6 22.9
2017-Mar-22 09:00N 28°00' W 063°48'1212.2 350 / 51018.9 19.8 22.9
2017-Mar-22 08:00N 27°54' W 063°36'1212.2 210 / 51018.9 20.1 22.5
2017-Mar-22 07:00N 27°48' W 063°24'1615.9 190 / 71018.9 20.1 22.1
2017-Mar-22 06:00N 27°48' W 063°06'1212.2 200 / 41019.1 20.3 22.0
2017-Mar-22 05:00N 27°42' W 062°54'1110.6 120 / 21019.6 20.4 21.4
2017-Mar-22 04:00N 27°42' W 062°42'1212.2 280 / 31019.7 20.2 22.1
2017-Mar-22 03:00N 27°36' W 062°30'1212.2 340 / 51019.4 20.2 22.5
2017-Mar-22 02:00N 27°30' W 062°18'1110.6 280 / 21019.1 20.3 22.8
2017-Mar-22 01:00N 27°30' W 062°06'1212.2 320 / 21018.7 20.4 22.8
2017-Mar-22 00:00N 27°24' W 061°54'1110.7 320 / 71018.4 20.4 22.9
2017-Mar-21 23:00N 27°24' W 061°42'1212.2 330 / 91018.1 20.6 22.8
2017-Mar-21 22:00N 27°18' W 061°30'1212.2 300 / 61017.8 21.0 22.6
2017-Mar-21 21:00N 27°12' W 061°18'1110.7 330 / 61017.8 21.0 22.7
2017-Mar-21 20:00N 27°12' W 061°06'1212.2 320 / 61017.9 21.1 22.4
2017-Mar-21 19:00N 27°06' W 060°54'1212.3 290 / 81019.1 21.4 22.6
2017-Mar-21 18:00N 27°00' W 060°42'1110.7 330 / 91019.6 21.2 22.3
2017-Mar-21 17:00N 27°00' W 060°30'1212.3 320 / 111019.3 20.7 22.6
2017-Mar-21 16:00N 26°54' W 060°18'1110.7 280 / 111019.5 21.4 22.6
2017-Mar-21 15:00N 26°54' W 060°06'1212.3 320 / 111019.4 21.1 22.6
2017-Mar-21 14:00N 26°48' W 059°54'1110.7 280 / 121019.0 21.2 22.4
2017-Mar-21 13:00N 26°48' W 059°42'1212.3 310 / 101018.2 21.1 22.6
2017-Mar-21 12:00N 26°42' W 059°30'1212.3 290 / 121016.9 21.2 22.7
2017-Mar-21 11:00N 26°36' W 059°18'1110.7 310 / 91016.5 21.2 23.0
2017-Mar-21 10:00N 26°36' W 059°06'1212.3 290 / 111016.0 21.4 24.0
2017-Mar-21 09:00N 26°30' W 058°54'1212.1 280 / 161015.6 21.8 24.2
2017-Mar-21 07:59N 26°24' W 058°42'1110.9 280 / 141015.3 22.3 24.0
2017-Mar-21 07:00N 26°24' W 058°30'1212.3 310 / 151014.8 22.4 24.1
2017-Mar-21 06:00N 26°18' W 058°18'1110.8 270 / 141015.1 22.5 24.1
2017-Mar-21 05:00N 26°18' W 058°06'1212.3 250 / 171015.5 22.9 24.1
2017-Mar-21 04:00N 26°12' W 057°54'1212.3 210 / 171015.7 23.4 24.1
2017-Mar-21 03:00N 26°06' W 057°42'1110.8 220 / 211015.7 23.5 24.1
2017-Mar-21 02:00N 26°06' W 057°30'1212.3 230 / 221015.5 23.0 23.9
2017-Mar-21 01:00N 26°00' W 057°18'1717.3 220 / 241015.7 21.8 23.9
2017-Mar-21 00:00N 25°54' W 057°00'1110.8 190 / 181015.9 23.3 23.6
2017-Mar-20 23:00N 25°54' W 056°48'1212.4 190 / 191015.7 23.3 23.8
2017-Mar-20 22:00N 25°48' W 056°36'1110.8 180 / 171016.1 23.7 23.8
2017-Mar-20 21:00N 25°48' W 056°24'1212.4 170 / 161016.3 23.8 24.0
2017-Mar-20 20:00N 25°42' W 056°12'1212.4 170 / 151016.8 23.7 23.8
2017-Mar-20 19:00N 25°36' W 056°00'1110.8 170 / 151017.4 23.8 23.9
2017-Mar-20 18:00N 25°36' W 055°48'0 0.0 160 / 131017.8 5.4 23.822.423.9
2017-Mar-20 17:59N 25°36' W 055°48'1212.4 170 / 151018.2 23.7 23.9
2017-Mar-20 16:59N 25°30' W 055°36'1717.3 160 / 151018.5 23.5 23.9
2017-Mar-20 15:59N 25°24' W 055°18'1110.8 150 / 181018.9 22.7 24.0
2017-Mar-20 14:59N 25°24' W 055°06'1212.4 150 / 141020.2 23.3 23.6
2017-Mar-20 13:59N 25°18' W 054°54'1212.4 140 / 151020.5 23.2 23.6
2017-Mar-20 12:59N 25°12' W 054°42'1111.0 140 / 161020.0 23.1 23.4
2017-Mar-20 12:00N 25°12' W 054°30'0 0.0 130 / 171020.010.8 23.021.323.4
2017-Mar-20 11:59N 25°12' W 054°30'1212.4 130 / 151019.8 23.0 23.4
2017-Mar-20 10:59N 25°06' W 054°18'1717.7 120 / 141019.3 22.9 23.5
2017-Mar-20 10:00N 25°00' W 054°00'1110.9 130 / 141019.1 22.7 23.6
2017-Mar-20 09:00N 25°00' W 053°48'1212.4 140 / 141018.9 22.6 23.4
2017-Mar-20 08:00N 24°54' W 053°36'1212.2 130 / 121018.6 22.5 23.3
2017-Mar-20 06:59N 24°48' W 053°24'1111.1 120 / 121018.7 22.6 23.0
2017-Mar-20 06:00N 24°48' W 053°12'0 0.0 130 / 141019.0 5.4 21.819.023.9
2017-Mar-20 05:59N 24°48' W 053°12'1212.4 130 / 131018.9 22.7 23.4
2017-Mar-20 04:59N 24°42' W 053°00'1212.4 140 / 111019.4 22.9 23.6
2017-Mar-20 03:59N 24°36' W 052°48'1110.9 130 / 121019.8 22.9 23.7
2017-Mar-20 02:59N 24°36' W 052°36'1212.7 110 / 131020.1 23.0 23.9
2017-Mar-20 02:00N 24°30' W 052°24'1717.4 110 / 141020.1 23.0 24.0
2017-Mar-20 01:00N 24°24' W 052°06'5 5.5 110 / 121020.0 22.9 23.5
2017-Mar-20 00:00N 24°24' W 052°00'1717.5 100 / 131019.6 5.4 22.917.823.5
2017-Mar-19 23:00N 24°18' W 051°42'1110.9 100 / 151019.2 23.0 24.1
2017-Mar-19 22:00N 24°18' W 051°30'1212.5 090 / 121019.2 23.0 24.2
2017-Mar-19 21:00N 24°12' W 051°18'1212.5 090 / 111019.4 23.2 24.2
2017-Mar-19 20:00N 24°06' W 051°06'1212.5 090 / 121020.4 23.6 24.2
2017-Mar-19 19:00N 24°00' W 050°54'1111.0 090 / 141021.5 23.7 24.5
2017-Mar-19 18:00N 24°00' W 050°42'1816.9 090 / 131022.310.8 24.819.524.2
2017-Mar-19 16:58N 23°54' W 050°24'1312.5 080 / 111023.5 22.9 24.1
2017-Mar-19 15:58N 23°48' W 050°12'1111.0 090 / 91024.2 22.9 24.0
2017-Mar-19 14:58N 23°48' W 050°00'1312.5 100 / 91024.7 22.9 23.8
2017-Mar-19 13:58N 23°42' W 049°48'1111.2 090 / 91024.4 22.9 24.2
2017-Mar-19 12:59N 23°42' W 049°36'1312.7 090 / 111023.9 22.8 24.1
2017-Mar-19 12:00N 23°36' W 049°24'0 0.0 080 / 51023.110.8 22.717.923.9
2017-Mar-19 11:59N 23°36' W 049°24'1312.5 090 / 91023.0 22.7 23.9
2017-Mar-19 10:59N 23°30' W 049°12'1716.5 090 / 111022.1 22.6 23.8
2017-Mar-19 09:59N 23°30' W 048°54'1312.5 080 / 111021.2 22.4 23.8
2017-Mar-19 08:59N 23°24' W 048°42'1312.5 100 / 151020.1 22.2 24.0
2017-Mar-19 07:59N 23°18' W 048°30'1111.0 080 / 111019.9 22.3 24.0
2017-Mar-19 06:59N 23°18' W 048°18'1312.8 080 / 111020.1 22.4 24.1
2017-Mar-19 06:00N 23°12' W 048°06'0 0.0 090 / 121020.2 5.4 21.618.524.3
2017-Mar-19 05:59N 23°12' W 048°06'1312.6 080 / 141020.3 22.3 24.2
2017-Mar-19 04:59N 23°06' W 047°54'1111.0 080 / 141020.8 22.4 24.2
2017-Mar-19 03:59N 23°06' W 047°42'1312.6 090 / 161020.9 22.4 23.8
2017-Mar-19 02:59N 23°00' W 047°30'1312.6 090 / 131021.6 22.3 23.7
2017-Mar-19 01:59N 22°54' W 047°18'1716.9 080 / 131021.8 22.2 23.8
2017-Mar-19 01:00N 22°54' W 047°00'1312.6 080 / 131021.7 22.1 23.8
2017-Mar-19 00:00N 22°48' W 046°48'1312.6 060 / 161021.5 21.7 23.7
2017-Mar-18 23:00N 22°42' W 046°36'1111.1 070 / 171020.8 22.0 23.8
2017-Mar-18 22:00N 22°42' W 046°24'1312.4 070 / 161020.7 21.9 23.8
2017-Mar-18 20:59N 22°36' W 046°12'1312.6 070 / 161020.2 21.8 23.8
2017-Mar-18 19:59N 22°30' W 046°00'1111.1 070 / 161019.9 21.1 23.8
2017-Mar-18 18:59N 22°30' W 045°48'1312.8 060 / 141020.1 22.4 23.7
2017-Mar-18 18:00N 22°24' W 045°36'6110.9 070 / 131020.710.8 24.022.324.0
2017-Mar-18 17:57N 22°24' W 045°30'1312.6 060 / 151020.6 22.3 24.1
2017-Mar-18 16:57N 22°18' W 045°18'1111.1 090 / 151021.5 23.3 23.9
2017-Mar-18 15:57N 22°18' W 045°06'1312.6 080 / 151021.6 22.2 23.9
2017-Mar-18 14:57N 22°12' W 044°54'1312.6 100 / 181020.9 21.4 23.9
2017-Mar-18 13:57N 22°06' W 044°42'1111.1 080 / 191022.4 22.7 23.9
2017-Mar-18 12:57N 22°06' W 044°30'1313.3 070 / 161023.0 22.6 24.1
2017-Mar-18 12:00N 22°00' W 044°18'6166.9 070 / 131022.3 5.4 23.018.724.2
2017-Mar-18 11:58N 22°00' W 044°12'1312.6 080 / 161022.4 23.1 24.2
2017-Mar-18 10:58N 21°54' W 044°00'1111.1 080 / 161021.0 22.9 24.0
2017-Mar-18 09:58N 21°54' W 043°48'1312.7 070 / 161020.4 22.2 23.8
2017-Mar-18 08:58N 21°48' W 043°36'1312.9 060 / 171019.9 22.0 23.8
2017-Mar-18 07:59N 21°42' W 043°24'1111.1 070 / 181019.8 22.1 23.8
2017-Mar-18 06:59N 21°42' W 043°12'1312.9 070 / 121019.5 21.8 23.7
2017-Mar-18 06:00N 21°36' W 043°00'0 0.0 080 / 151019.5 5.4 21.717.924.1
2017-Mar-18 05:59N 21°36' W 043°00'1312.9 080 / 151019.4 22.3 23.8
2017-Mar-18 05:00N 21°30' W 042°48'1111.2 090 / 181019.2 22.4 23.8
2017-Mar-18 04:00N 21°30' W 042°36'1312.7 080 / 161019.6 22.3 23.8
2017-Mar-18 03:00N 21°24' W 042°24'1111.2 090 / 181019.8 22.4 23.8
2017-Mar-18 02:00N 21°24' W 042°12'1312.7 080 / 191019.8 22.3 23.5
2017-Mar-18 01:00N 21°18' W 042°00'1312.7 080 / 201019.8 22.7 23.7
2017-Mar-18 00:00N 21°12' W 041°48'1110.8 070 / 191019.9 5.4 22.716.223.8
2017-Mar-17 22:58N 21°12' W 041°36'1312.7 080 / 181019.7 22.6 23.5
2017-Mar-17 21:58N 21°06' W 041°24'2311.7 070 / 211019.5 22.5 23.4
2017-Mar-17 19:59N 21°00' W 041°00'1312.7 080 / 231019.0 23.0 23.4
2017-Mar-17 18:59N 20°54' W 040°48'1312.9 080 / 211020.0 23.4 23.6
2017-Mar-17 18:00N 20°48' W 040°36'0 0.0 070 / 241020.410.8 23.119.723.5
2017-Mar-17 17:55N 20°48' W 040°36'1111.2 070 / 191020.5 23.1 23.6
2017-Mar-17 16:55N 20°48' W 040°24'1312.9 070 / 211020.8 22.7 23.6
2017-Mar-17 15:56N 20°42' W 040°12'0 0.0 080 / 251020.5 22.3 23.6
2017-Mar-17 14:56N 20°42' W 040°12'0 0.0 050 / 241019.8 22.3 23.6
2017-Mar-17 13:56N 20°42' W 040°12'0 0.0 060 / 221020.5 22.4 23.6
2017-Mar-17 12:56N 20°42' W 040°12'0 0.0 060 / 241020.8 22.4 23.6
2017-Mar-17 12:00N 20°42' W 040°12'0 0.0 070 / 191020.9 5.4 22.318.423.6
2017-Mar-17 11:56N 20°42' W 040°12'1111.2 060 / 241020.7 22.2 23.6
2017-Mar-17 10:56N 20°42' W 040°00'1312.9 080 / 231020.9 22.4 23.7
2017-Mar-17 09:57N 20°36' W 039°48'1312.7 070 / 261020.0 22.6 23.7
2017-Mar-17 08:57N 20°30' W 039°36'1111.2 070 / 281019.1 22.3 23.7
2017-Mar-17 07:57N 20°30' W 039°24'1313.0 070 / 241018.7 22.3 23.7
2017-Mar-17 06:58N 20°24' W 039°12'1313.2 060 / 261018.5 22.4 23.9
2017-Mar-17 06:00N 20°18' W 039°00'0 0.0 070 / 221018.1 5.4 20.818.424.0
2017-Mar-17 05:58N 20°18' W 039°00'1111.3 060 / 231018.0 21.6 23.9
2017-Mar-17 04:58N 20°18' W 038°48'1313.0 080 / 221017.6 20.3 23.8
2017-Mar-17 03:59N 20°12' W 038°36'1312.8 060 / 171018.5 20.7 23.5
2017-Mar-17 02:59N 20°06' W 038°24'1111.5 070 / 211018.8 21.1 23.6
2017-Mar-17 02:00N 20°06' W 038°12'1312.8 070 / 241018.4 20.8 23.5
2017-Mar-17 01:00N 20°00' W 038°00'1111.3 070 / 311018.4 21.1 23.7
2017-Mar-17 00:00N 20°00' W 037°48'0 0.0 070 / 171018.9 21.5 23.6
2017-Mar-16 22:50N 20°00' W 037°48'0 0.0 050 / 191018.3 21.9 23.6
2017-Mar-16 21:50N 20°00' W 037°48'0 0.0 060 / 281017.7 21.5 23.6
2017-Mar-16 20:50N 20°00' W 037°48'6 5.7 060 / 281017.5 21.6 23.6
2017-Mar-16 19:51N 20°00' W 037°54'0 0.0 050 / 261017.0 21.6 23.6
2017-Mar-16 18:51N 20°00' W 037°54'6 5.7 070 / 261018.2 23.4 23.6
2017-Mar-16 17:52N 20°00' W 037°48'0 0.0 060 / 211017.5 22.6 23.6
2017-Mar-16 16:52N 20°00' W 037°48'0 0.0 080 / 231018.4 21.5 23.6
2017-Mar-16 15:53N 20°00' W 037°48'0 0.0 060 / 251018.8 22.6 23.6
2017-Mar-16 14:53N 20°00' W 037°48'0 0.0 060 / 251019.2 22.6 23.6
2017-Mar-16 13:54N 20°00' W 037°48'1111.3 080 / 321020.4 22.6 23.6
2017-Mar-16 12:54N 20°00' W 037°36'1112.5 070 / 291020.8 22.4 23.6
2017-Mar-16 12:00N 20°00' W 037°24'0 0.0 080 / 241019.8 5.4 21.819.223.6
2017-Mar-16 11:55N 20°00' W 037°24'1111.3 080 / 221019.7 21.5 23.6
2017-Mar-16 10:55N 20°00' W 037°12'1111.3 060 / 251019.2 22.3 23.6
2017-Mar-16 09:55N 20°00' W 037°00'1111.5 080 / 231018.4 21.4 23.6
2017-Mar-16 08:56N 20°00' W 036°48'1111.3 060 / 201017.9 22.0 23.6
2017-Mar-16 07:56N 20°00' W 036°36'1717.2 070 / 201017.3 21.3 23.5
2017-Mar-16 06:57N 20°00' W 036°18'1111.9 060 / 231017.0 21.1 23.7
2017-Mar-16 06:00N 20°00' W 036°06'0 0.0 060 / 191017.3 5.4 21.819.023.8
2017-Mar-16 05:57N 20°00' W 036°06'1111.5 060 / 201017.2 22.3 23.6
2017-Mar-16 04:58N 20°00' W 035°54'1111.3 070 / 231016.9 22.2 23.6
2017-Mar-16 03:58N 20°00' W 035°42'1111.5 060 / 201016.8 21.9 23.5
2017-Mar-16 02:59N 20°00' W 035°30'1111.3 060 / 241017.0 21.9 23.7
2017-Mar-16 01:59N 20°00' W 035°18'1313.0 060 / 181017.0 22.7 23.4
2017-Mar-16 01:00N 20°06' W 035°06'1111.3 070 / 191016.8 22.6 23.5
2017-Mar-16 00:00N 20°06' W 034°54'1714.9 060 / 191016.8 5.4 22.618.823.7
2017-Mar-15 22:52N 20°06' W 034°36'1111.3 070 / 131016.6 22.6 23.5
2017-Mar-15 21:52N 20°06' W 034°24'1111.3 080 / 171016.1 22.9 23.5
2017-Mar-15 20:52N 20°06' W 034°12'1717.2 060 / 151015.6 22.9 23.6
2017-Mar-15 19:53N 20°06' W 033°54'1111.3 070 / 131015.4 23.3 23.7
2017-Mar-15 18:53N 20°06' W 033°42'1112.8 090 / 161015.2 24.1 23.6
2017-Mar-15 18:00N 20°06' W 033°30'   070 / 131016.6 5.4 26.519.723.7

Dump ship's entire track history